CYXL

Sioux Lookout Airport

Airport
ICAO code
CYXL
IATA Code
YXL
Summary
ICAO Region
NAM
ICAO Territory
Location

Sioux Lookout, Ontario

Serving
Sioux Lookout
Elevation
1257 ft
Coordinates
50° 6' 51" N , 91° 54' 20" W
KCC
Airport CFIT
Altimeter Temperature Error Correction
Metar
Observation
CYXL 271000Z 36005KT 15SM OVC026 01/M04 A3021 RMK SC8 SLP249
Station
Sioux Lookout, Ont.
Date/Time
2022-09-27 10:00:00
Wind direction
360°
Wind speed
05 kts
Lowest cloud amount
overcast
Temperature
1°C
Dew point
-4°C
Humidity
69%
Weather condition
n/a

Sioux Lookout Airport is a regional airport serving Sioux Lookout, Ontario, Canada. The airport is a "mini-hub" facilitating travel to and from many northern communities in Northwestern Ontario.

Airport map

Aerial View

SKYbrary Partners:

Safety knowledge contributed by: